Time;durP1;ratioP1;P1;durP2;ratioP2;P2;SDS_P1;SDS_P2;PMS_P1;PMS_P2;Temp;Humidity;BMP_temperature;BMP_pressure;BME280_temperature;BME280_humidity;BME280_pressure;Samples;Min_cycle;Max_cycle;Signal;HPM_P1;HPM_P2
2021/03/11 00:00:48;;;;;;;61.13;33.50;;;6.30;98.90;;;;;;4376162;32;20268;-62
2021/03/11 00:03:16;;;;;;;67.50;33.37;;;6.30;98.90;;;;;;4377428;32;20208;-63
2021/03/11 00:05:42;;;;;;;64.13;32.57;;;6.40;99.00;;;;;;4375869;32;20180;-65
2021/03/11 00:08:09;;;;;;;57.70;31.70;;;6.30;99.00;;;;;;4380758;32;20483;-64
2021/03/11 00:10:36;;;;;;;57.00;30.93;;;6.40;99.00;;;;;;4380280;32;20210;-62
2021/03/11 00:13:05;;;;;;;56.23;30.10;;;6.40;98.90;;;;;;4380088;32;20160;-64
2021/03/11 00:15:31;;;;;;;55.33;30.40;;;6.40;98.90;;;;;;4379981;32;20228;-64
2021/03/11 00:17:58;;;;;;;49.17;29.07;;;6.40;98.80;;;;;;4380849;32;20219;-62
2021/03/11 00:20:26;;;;;;;53.00;29.83;;;6.40;98.80;;;;;;4380659;32;20615;-61
2021/03/11 00:22:54;;;;;;;46.33;28.07;;;6.40;98.80;;;;;;4377993;32;20238;-61
2021/03/11 00:25:23;;;;;;;49.47;27.87;;;6.50;98.80;;;;;;4380030;32;20231;-62
2021/03/11 00:27:50;;;;;;;44.17;26.47;;;6.50;98.60;;;;;;4380015;32;20270;-62
2021/03/11 00:30:18;;;;;;;42.23;25.30;;;6.60;98.70;;;;;;4377230;32;20496;-63
2021/03/11 00:32:45;;;;;;;47.93;26.00;;;6.60;98.60;;;;;;4378981;32;20584;-62
2021/03/11 00:35:12;;;;;;;41.87;24.30;;;6.60;98.60;;;;;;4380327;32;21189;-62
2021/03/11 00:37:39;;;;;;;41.10;25.33;;;6.60;98.50;;;;;;4384769;32;20178;-63
2021/03/11 00:40:08;;;;;;;40.97;25.03;;;6.70;98.50;;;;;;4379095;32;20239;-62
2021/03/11 00:42:35;;;;;;;37.20;23.90;;;6.70;98.50;;;;;;4379688;32;20200;-62
2021/03/11 00:45:01;;;;;;;37.03;22.87;;;6.70;98.40;;;;;;4379412;32;20258;-62
2021/03/11 00:47:28;;;;;;;37.00;22.90;;;6.80;98.40;;;;;;4382391;32;20194;-64
2021/03/11 00:49:55;;;;;;;36.77;22.53;;;6.80;98.30;;;;;;4379121;32;20208;-62
2021/03/11 00:52:21;;;;;;;40.43;23.07;;;6.80;98.30;;;;;;4381672;32;20191;-65
2021/03/11 00:54:47;;;;;;;35.10;22.97;;;6.90;98.40;;;;;;4378610;32;20265;-68
2021/03/11 00:57:14;;;;;;;39.40;23.50;;;7.00;98.40;;;;;;4383796;32;20197;-63
2021/03/11 00:59:40;;;;;;;38.60;22.83;;;7.00;98.40;;;;;;4378528;32;20176;-66
2021/03/11 01:02:06;;;;;;;36.07;21.50;;;7.00;98.40;;;;;;4377353;32;20176;-64
2021/03/11 01:04:33;;;;;;;36.60;22.40;;;7.10;98.50;;;;;;4381013;32;20272;-64
2021/03/11 01:07:00;;;;;;;35.90;23.00;;;7.00;98.60;;;;;;4378190;32;20656;-64
2021/03/11 01:09:26;;;;;;;36.33;23.53;;;7.00;98.70;;;;;;4376195;32;20226;-61
2021/03/11 01:11:52;;;;;;;39.17;25.40;;;7.00;98.90;;;;;;4383508;32;20212;-64
2021/03/11 01:14:19;;;;;;;42.17;25.70;;;7.00;99.00;;;;;;4381588;32;20176;-64
2021/03/11 01:16:46;;;;;;;48.33;26.23;;;7.00;99.10;;;;;;4382827;32;20263;-64
2021/03/11 01:19:12;;;;;;;41.13;25.07;;;7.00;99.40;;;;;;4384297;32;21156;-61
2021/03/11 01:21:40;;;;;;;44.50;26.07;;;7.00;99.20;;;;;;4384062;32;20160;-67
2021/03/11 01:24:07;;;;;;;44.03;26.83;;;7.00;99.30;;;;;;4384216;32;20187;-66
2021/03/11 01:26:33;;;;;;;40.37;24.90;;;7.10;99.30;;;;;;4382662;32;20179;-64
2021/03/11 01:29:00;;;;;;;40.33;25.77;;;7.10;99.60;;;;;;4382552;32;20160;-64
2021/03/11 01:31:28;;;;;;;45.40;28.40;;;7.10;99.30;;;;;;4380616;32;20160;-64
2021/03/11 01:33:54;;;;;;;42.07;26.07;;;7.10;99.30;;;;;;4382450;32;20869;-66
2021/03/11 01:36:21;;;;;;;40.13;25.70;;;7.10;99.30;;;;;;4379419;32;20211;-63
2021/03/11 01:38:48;;;;;;;40.80;25.07;;;7.20;99.60;;;;;;4381671;32;20562;-61
2021/03/11 01:41:14;;;;;;;44.77;25.80;;;7.20;99.40;;;;;;4380136;32;20534;-62
2021/03/11 01:43:40;;;;;;;44.03;26.63;;;7.20;99.40;;;;;;4381271;32;20602;-63
2021/03/11 01:46:07;;;;;;;43.83;27.27;;;7.20;99.40;;;;;;4380724;32;20249;-63
2021/03/11 01:48:34;;;;;;;45.87;27.63;;;7.20;99.40;;;;;;4382962;32;20208;-62
2021/03/11 01:51:01;;;;;;;43.10;26.70;;;7.30;99.40;;;;;;4378689;32;20172;-62
2021/03/11 01:53:29;;;;;;;38.30;24.63;;;7.30;99.40;;;;;;4380296;32;20212;-65
2021/03/11 01:55:56;;;;;;;40.20;25.50;;;7.30;99.30;;;;;;4382280;32;20236;-63
2021/03/11 01:58:22;;;;;;;35.50;23.60;;;7.30;99.20;;;;;;4380047;32;20216;-65
2021/03/11 02:00:49;;;;;;;36.33;23.17;;;7.40;99.20;;;;;;4381785;32;20227;-63
2021/03/11 02:03:16;;;;;;;37.63;22.97;;;7.40;99.20;;;;;;4381679;32;20254;-62
2021/03/11 02:05:42;;;;;;;37.60;24.47;;;7.40;99.20;;;;;;4383304;32;20239;-63
2021/03/11 02:08:09;;;;;;;37.97;24.30;;;7.40;99.20;;;;;;4381707;32;20207;-64
2021/03/11 02:10:35;;;;;;;41.13;24.80;;;7.40;99.20;;;;;;4378368;32;20262;-63
2021/03/11 02:13:17;;;;;;;33.67;22.40;;;7.50;99.20;;;;;;4385533;32;20220;-65
2021/03/11 02:15:50;;;;;;;36.40;23.43;;;7.50;99.20;;;;;;4383840;32;20207;-64
2021/03/11 02:18:22;;;;;;;33.20;22.70;;;7.50;99.20;;;;;;4378914;32;20569;-63
2021/03/11 02:21:01;;;;;;;36.50;22.27;;;7.50;99.20;;;;;;4381361;32;20160;-66
2021/03/11 02:24:05;;;;;;;35.77;22.63;;;7.60;99.30;;;;;;4378094;32;20242;-63
2021/03/11 02:27:16;;;;;;;34.43;22.37;;;7.50;99.20;;;;;;4383193;32;20172;-64
2021/03/11 02:29:44;;;;;;;33.57;21.13;;;7.60;99.20;;;;;;4320981;33;20222;-62
2021/03/11 02:32:13;;;;;;;33.83;21.77;;;7.60;99.20;;;;;;4321564;33;20157;-66
2021/03/11 02:34:41;;;;;;;34.73;22.20;;;7.60;99.20;;;;;;4317690;33;20216;-65
2021/03/11 02:37:12;;;;;;;33.80;21.87;;;7.50;99.20;;;;;;4319743;33;20190;-64
2021/03/11 02:39:42;;;;;;;28.93;20.37;;;7.60;99.10;;;;;;4319039;33;20193;-63
2021/03/11 02:42:10;;;;;;;34.27;21.77;;;7.60;99.10;;;;;;4323767;33;20233;-63
2021/03/11 02:44:37;;;;;;;34.93;24.53;;;7.70;99.20;;;;;;4319536;33;20191;-63
2021/03/11 02:47:06;;;;;;;33.93;23.30;;;7.70;99.20;;;;;;4320888;33;20191;-65
2021/03/11 02:49:33;;;;;;;37.63;23.43;;;7.70;99.20;;;;;;4324173;33;20344;-63
2021/03/11 02:56:17;;;;;;;38.03;22.73;;;7.70;99.40;;;;;;4321415;33;20716;-64
2021/03/11 02:58:44;;;;;;;35.67;23.13;;;7.70;99.50;;;;;;4321531;33;20236;-65
2021/03/11 03:01:15;;;;;;;35.90;23.80;;;7.70;99.50;;;;;;4317036;33;20222;-64
2021/03/11 03:03:43;;;;;;;35.77;23.57;;;7.70;99.60;;;;;;4318282;33;20173;-65
2021/03/11 03:06:11;;;;;;;37.53;25.13;;;7.70;99.60;;;;;;4356045;32;20219;-64
2021/03/11 03:08:42;;;;;;;36.17;24.73;;;7.70;99.60;;;;;;4385013;32;20167;-65
2021/03/11 03:11:11;;;;;;;36.93;24.47;;;7.80;99.60;;;;;;4382748;32;20191;-63
2021/03/11 03:13:40;;;;;;;35.70;23.93;;;7.70;99.70;;;;;;4382811;32;20190;-66
2021/03/11 03:16:07;;;;;;;37.10;24.50;;;7.70;99.70;;;;;;4380390;32;20218;-64
2021/03/11 03:18:35;;;;;;;38.20;24.47;;;7.80;99.80;;;;;;4381911;32;20176;-64
2021/03/11 03:21:05;;;;;;;35.87;23.10;;;7.80;99.80;;;;;;4379284;32;20613;-65
2021/03/11 03:23:32;;;;;;;37.33;24.40;;;7.80;99.80;;;;;;4382718;32;20160;-65
2021/03/11 03:25:58;;;;;;;35.80;24.50;;;7.90;99.80;;;;;;4379251;32;20199;-63
2021/03/11 03:28:27;;;;;;;38.43;23.17;;;7.90;99.70;;;;;;4381096;32;20178;-65
2021/03/11 03:30:53;;;;;;;34.10;23.67;;;8.00;99.70;;;;;;4383226;32;20176;-63
2021/03/11 03:33:20;;;;;;;35.27;23.70;;;7.90;99.80;;;;;;4379490;32;20278;-64
2021/03/11 03:35:46;;;;;;;35.17;23.07;;;8.00;99.80;;;;;;4382657;32;20247;-66
2021/03/11 03:38:15;;;;;;;32.43;22.13;;;8.00;99.80;;;;;;4381652;32;20212;-62
2021/03/11 03:40:42;;;;;;;34.97;22.73;;;8.00;99.80;;;;;;4383509;32;20168;-66
2021/03/11 03:43:13;;;;;;;33.83;22.60;;;8.10;99.80;;;;;;4382010;32;20290;-66
2021/03/11 03:45:44;;;;;;;36.13;22.87;;;8.00;99.80;;;;;;4385057;32;20168;-64
2021/03/11 03:48:18;;;;;;;33.53;23.97;;;8.10;99.80;;;;;;4384295;32;20211;-67
2021/03/11 03:50:48;;;;;;;38.70;24.17;;;8.10;99.80;;;;;;4381333;32;20155;-63
2021/03/11 03:53:21;;;;;;;35.23;23.40;;;8.10;99.90;;;;;;4380498;32;20160;-66
2021/03/11 03:55:52;;;;;;;33.90;23.77;;;8.20;99.90;;;;;;4377307;32;20243;-66
2021/03/11 03:58:18;;;;;;;39.27;23.57;;;8.20;99.80;;;;;;4383931;32;22154;-62
2021/03/11 04:00:45;;;;;;;38.93;25.20;;;8.20;99.80;;;;;;4379801;32;20144;-66
2021/03/11 04:03:15;;;;;;;33.23;21.53;;;8.30;99.80;;;;;;4381533;32;20203;-64
2021/03/11 04:05:42;;;;;;;39.60;23.13;;;8.30;99.80;;;;;;4379309;32;20218;-65
2021/03/11 04:08:10;;;;;;;33.80;23.60;;;8.30;99.80;;;;;;4381380;32;20175;-66
2021/03/11 04:10:40;;;;;;;38.37;23.93;;;8.40;99.70;;;;;;4381086;32;20188;-65
2021/03/11 04:13:09;;;;;;;36.67;23.67;;;8.40;99.70;;;;;;4383581;32;20291;-61
2021/03/11 04:15:39;;;;;;;40.97;24.37;;;8.40;99.60;;;;;;4377899;32;20230;-66
2021/03/11 04:18:12;;;;;;;34.57;22.07;;;8.40;99.60;;;;;;4383457;32;20676;-65
2021/03/11 04:20:39;;;;;;;35.47;22.60;;;8.50;99.50;;;;;;4380859;32;20723;-62
2021/03/11 04:23:06;;;;;;;35.53;22.43;;;8.50;99.50;;;;;;4380726;32;20191;-64
2021/03/11 04:25:33;;;;;;;31.80;21.03;;;8.60;99.50;;;;;;4380179;32;20188;-64
2021/03/11 04:28:06;;;;;;;31.87;20.70;;;8.60;99.50;;;;;;4383361;32;20176;-62
2021/03/11 04:30:33;;;;;;;30.70;20.60;;;8.60;99.40;;;;;;4381963;32;20178;-64
2021/03/11 04:33:00;;;;;;;31.00;18.47;;;8.70;99.30;;;;;;4385165;32;20669;-62
2021/03/11 04:35:26;;;;;;;32.43;19.43;;;8.80;99.20;;;;;;4380807;32;20296;-64
2021/03/11 04:37:54;;;;;;;28.07;20.50;;;8.70;99.10;;;;;;4382842;32;20221;-63
2021/03/11 04:40:21;;;;;;;27.73;19.60;;;8.70;99.10;;;;;;4382934;32;20157;-66
2021/03/11 04:42:48;;;;;;;26.50;19.37;;;8.80;99.00;;;;;;4383672;32;20164;-63
2021/03/11 04:45:16;;;;;;;26.23;19.20;;;8.80;98.90;;;;;;4379019;32;20172;-63
2021/03/11 04:47:42;;;;;;;28.93;18.27;;;8.80;98.90;;;;;;4380572;32;20278;-64
2021/03/11 04:50:11;;;;;;;29.87;18.97;;;8.80;98.80;;;;;;4381468;32;20228;-65
2021/03/11 04:52:40;;;;;;;24.37;17.43;;;8.90;98.70;;;;;;4378571;32;20181;-65
2021/03/11 04:55:07;;;;;;;28.23;18.23;;;8.90;98.60;;;;;;4379562;32;20187;-61
2021/03/11 04:57:34;;;;;;;26.93;17.90;;;9.00;98.60;;;;;;4381742;32;20165;-64
2021/03/11 05:00:04;;;;;;;32.10;18.90;;;9.00;98.60;;;;;;4379100;32;20204;-63
2021/03/11 05:02:34;;;;;;;25.80;17.47;;;9.00;98.70;;;;;;4383239;32;20165;-65
2021/03/11 05:05:06;;;;;;;30.73;16.37;;;9.00;98.80;;;;;;4377957;32;20225;-63
2021/03/11 05:07:32;;;;;;;28.73;17.80;;;9.10;98.70;;;;;;4380245;32;20224;-62
2021/03/11 05:10:01;;;;;;;28.10;18.73;;;8.90;98.90;;;;;;4379559;32;20505;-66
2021/03/11 05:12:28;;;;;;;28.30;18.23;;;9.00;98.90;;;;;;4380807;32;20160;-66
2021/03/11 05:14:57;;;;;;;27.90;19.13;;;9.00;99.00;;;;;;4380681;32;20484;-64
2021/03/11 05:17:23;;;;;;;29.30;18.40;;;9.00;99.00;;;;;;4379841;32;20188;-65
2021/03/11 05:19:54;;;;;;;30.97;19.67;;;9.00;98.90;;;;;;4378512;32;20169;-65
2021/03/11 05:22:21;;;;;;;27.13;18.47;;;9.00;99.10;;;;;;4383850;32;20675;-64
2021/03/11 05:24:55;;;;;;;28.67;19.27;;;9.00;99.00;;;;;;4381442;32;20199;-64
2021/03/11 05:27:21;;;;;;;27.43;17.83;;;9.00;99.00;;;;;;4379682;32;20554;-68
2021/03/11 05:29:48;;;;;;;28.30;19.33;;;9.10;99.10;;;;;;4379353;32;20263;-66
2021/03/11 05:32:14;;;;;;;30.50;19.10;;;9.10;99.10;;;;;;4377535;32;20185;-64
2021/03/11 05:34:40;;;;;;;30.73;19.87;;;9.10;99.30;;;;;;4376739;32;20266;-63
2021/03/11 05:37:07;;;;;;;30.77;19.87;;;9.00;99.30;;;;;;4380469;32;20172;-63
2021/03/11 05:39:34;;;;;;;31.07;20.57;;;9.00;99.40;;;;;;4382037;32;20470;-65
2021/03/11 05:42:01;;;;;;;39.77;20.57;;;9.00;99.50;;;;;;4379336;32;20250;-64
2021/03/11 05:44:28;;;;;;;34.30;20.60;;;9.00;99.60;;;;;;4381550;32;20183;-66
2021/03/11 05:46:56;;;;;;;31.27;20.67;;;9.00;99.60;;;;;;4380882;32;20299;-62
2021/03/11 05:49:23;;;;;;;34.07;21.23;;;9.00;99.70;;;;;;4379335;32;20177;-63
2021/03/11 05:51:50;;;;;;;33.70;20.30;;;9.00;99.80;;;;;;4379434;32;20620;-65
2021/03/11 05:54:17;;;;;;;33.40;21.90;;;9.00;99.80;;;;;;4381074;32;20222;-66
2021/03/11 05:56:43;;;;;;;36.93;22.43;;;9.00;99.80;;;;;;4378701;32;20198;-65
2021/03/11 05:59:10;;;;;;;34.73;20.17;;;9.00;99.90;;;;;;4380449;32;20200;-65
2021/03/11 06:01:37;;;;;;;37.57;20.37;;;9.00;99.90;;;;;;4384899;32;20193;-65
2021/03/11 06:04:14;;;;;;;29.67;20.70;;;9.00;99.90;;;;;;4382127;32;20172;-63
2021/03/11 06:06:41;;;;;;;35.20;21.83;;;9.00;99.90;;;;;;4384764;32;21574;-64
2021/03/11 06:09:08;;;;;;;30.20;20.90;;;9.00;99.90;;;;;;4383682;32;20267;-62
2021/03/11 06:11:36;;;;;;;31.73;20.07;;;9.10;99.90;;;;;;4386233;32;20224;-63
2021/03/11 06:14:04;;;;;;;33.33;20.80;;;9.10;99.80;;;;;;4385397;32;20287;-62
2021/03/11 06:16:33;;;;;;;30.33;18.23;;;9.10;99.80;;;;;;4382927;32;20240;-65
2021/03/11 06:19:00;;;;;;;32.23;18.67;;;9.00;99.80;;;;;;4381673;32;20160;-66
2021/03/11 06:21:27;;;;;;;34.17;17.07;;;9.10;99.80;;;;;;4378612;32;20160;-64
2021/03/11 06:23:53;;;;;;;31.07;18.60;;;9.10;99.80;;;;;;4385103;32;20176;-64
2021/03/11 06:26:22;;;;;;;32.90;17.23;;;9.20;99.70;;;;;;4380734;32;20262;-66
2021/03/11 06:28:54;;;;;;;26.43;15.53;;;9.20;99.40;;;;;;4385338;32;20175;-64
2021/03/11 06:31:22;;;;;;;26.07;15.37;;;9.20;99.00;;;;;;4382345;32;20164;-64
2021/03/11 06:33:49;;;;;;;23.10;14.93;;;9.20;99.20;;;;;;4381511;32;20304;-65
2021/03/11 06:36:18;;;;;;;21.27;13.57;;;9.30;99.20;;;;;;4382155;32;20217;-64
2021/03/11 06:38:47;;;;;;;21.33;12.67;;;9.40;98.90;;;;;;4382372;32;20208;-68
2021/03/11 06:41:19;;;;;;;20.70;10.87;;;9.40;98.80;;;;;;4383266;32;20498;-65
2021/03/11 06:43:58;;;;;;;24.53;9.97;;;9.40;98.50;;;;;;4383204;32;20170;-65
2021/03/11 06:46:25;;;;;;;21.37;8.20;;;9.50;97.80;;;;;;4382646;32;20192;-65
2021/03/11 06:49:05;;;;;;;16.67;7.67;;;9.50;97.60;;;;;;4385089;32;20286;-66
2021/03/11 06:51:32;;;;;;;15.13;7.50;;;9.60;97.30;;;;;;4382722;32;20660;-64
2021/03/11 06:53:59;;;;;;;14.80;7.60;;;9.50;97.40;;;;;;4381443;32;20231;-66
2021/03/11 06:56:27;;;;;;;14.70;7.50;;;9.70;97.30;;;;;;4381899;32;20208;-66
2021/03/11 06:58:59;;;;;;;11.10;7.10;;;9.70;97.20;;;;;;4383712;32;20697;-64
2021/03/11 07:01:27;;;;;;;10.87;5.73;;;9.80;97.10;;;;;;4380930;32;20157;-67
2021/03/11 07:03:54;;;;;;;10.13;6.00;;;10.00;96.20;;;;;;4382037;32;20240;-69
2021/03/11 07:06:31;;;;;;;12.43;6.27;;;10.00;95.90;;;;;;4378139;32;20209;-66
2021/03/11 07:08:59;;;;;;;14.47;5.50;;;10.10;95.90;;;;;;4380396;32;20217;-64
2021/03/11 07:11:29;;;;;;;12.63;5.70;;;10.20;95.70;;;;;;4380652;32;20271;-66
2021/03/11 07:13:56;;;;;;;12.97;4.83;;;10.40;95.00;;;;;;4379794;32;20491;-67
2021/03/11 07:16:26;;;;;;;22.27;6.77;;;10.50;94.30;;;;;;4381668;32;20660;-65
2021/03/11 07:19:12;;;;;;;16.13;5.70;;;10.40;94.30;;;;;;4383083;32;20175;-68
2021/03/11 07:21:47;;;;;;;13.20;4.10;;;10.40;94.20;;;;;;4380334;32;22421;-66
2021/03/11 07:24:38;;;;;;;13.10;4.57;;;10.50;93.70;;;;;;4382573;32;20217;-63
2021/03/11 07:27:06;;;;;;;17.77;4.93;;;10.60;93.30;;;;;;4381353;32;20211;-67
2021/03/11 07:29:32;;;;;;;10.47;4.10;;;10.70;93.10;;;;;;4380998;32;20218;-69
2021/03/11 07:32:00;;;;;;;14.13;5.27;;;10.80;93.00;;;;;;4383743;32;20166;-68
2021/03/11 07:34:35;;;;;;;16.70;4.73;;;10.70;92.40;;;;;;4381941;32;20215;-66
2021/03/11 07:37:04;;;;;;;24.10;6.17;;;10.80;92.40;;;;;;4380490;32;20441;-67
2021/03/11 07:39:35;;;;;;;23.07;5.47;;;10.90;91.80;;;;;;4383685;32;20182;-66
2021/03/11 07:42:15;;;;;;;21.93;5.20;;;11.10;91.70;;;;;;4379025;32;20218;-67
2021/03/11 07:44:41;;;;;;;35.73;6.47;;;11.00;90.90;;;;;;4378247;32;20330;-65
2021/03/11 07:47:13;;;;;;;27.97;7.10;;;10.80;91.10;;;;;;4382363;32;20167;-67
2021/03/11 07:49:42;;;;;;;29.57;5.73;;;10.80;91.10;;;;;;4378757;32;20176;-67
2021/03/11 07:52:11;;;;;;;28.57;6.30;;;10.80;90.70;;;;;;4382790;32;20170;-68
2021/03/11 07:54:39;;;;;;;19.30;4.90;;;10.90;90.40;;;;;;4382110;32;20162;-65
2021/03/11 07:57:26;;;;;;;29.60;5.67;;;11.10;90.10;;;;;;4380129;32;20198;-66
2021/03/11 07:59:52;;;;;;;33.87;5.80;;;11.30;89.10;;;;;;4382474;32;20227;-64
2021/03/11 08:02:23;;;;;;;26.97;5.30;;;11.30;88.10;;;;;;4380622;32;20194;-65
2021/03/11 08:05:04;;;;;;;27.63;5.93;;;11.40;87.80;;;;;;4380059;32;20213;-67
2021/03/11 08:07:36;;;;;;;26.57;5.73;;;11.40;87.00;;;;;;4379813;32;20207;-65
2021/03/11 08:10:02;;;;;;;23.67;5.97;;;11.40;86.90;;;;;;4382150;32;20238;-65
2021/03/11 08:12:37;;;;;;;24.40;5.70;;;11.50;87.10;;;;;;4382761;32;20488;-67
2021/03/11 08:15:08;;;;;;;23.93;5.33;;;11.50;87.10;;;;;;4384478;32;20155;-65
2021/03/11 08:17:46;;;;;;;33.77;6.03;;;11.60;86.60;;;;;;4376500;32;20160;-67
2021/03/11 08:20:40;;;;;;;26.77;5.07;;;11.40;87.30;;;;;;4383586;32;20167;-65
2021/03/11 08:23:28;;;;;;;28.43;5.07;;;11.60;86.50;;;;;;4380258;32;20195;-65
2021/03/11 08:25:59;;;;;;;25.37;5.47;;;11.70;85.80;;;;;;4377122;32;20183;-65
2021/03/11 08:28:42;;;;;;;22.30;5.40;;;11.70;85.20;;;;;;4380107;32;20534;-66
2021/03/11 08:31:09;;;;;;;38.30;6.20;;;11.60;84.70;;;;;;4383927;32;20477;-66
2021/03/11 08:33:47;;;;;;;34.30;6.57;;;11.50;84.80;;;;;;4383951;32;20160;-65
2021/03/11 08:36:39;;;;;;;22.43;5.53;;;11.50;85.30;;;;;;4382279;32;20148;-63
2021/03/11 08:39:40;;;;;;;24.97;5.43;;;11.50;85.40;;;;;;4383114;32;20515;-66
2021/03/11 08:42:52;;;;;;;35.30;6.83;;;11.40;86.00;;;;;;4331160;32;20528;-65
2021/03/11 08:46:04;;;;;;;31.03;6.03;;;11.40;85.30;;;;;;4290698;32;2549494;-67
2021/03/11 08:49:00;;;;;;;28.63;6.60;;;11.50;84.60;;;;;;4368259;32;20177;-65
2021/03/11 08:52:06;;;;;;;36.20;7.10;;;11.80;83.00;;;;;;4369192;32;20215;-68
2021/03/11 08:58:33;;;;;;;26.17;5.80;;;11.60;82.90;;;;;;4311969;33;20193;-66
2021/03/11 09:01:09;;;;;;;30.93;6.70;;;11.80;83.10;;;;;;4311365;33;20286;-66
2021/03/11 09:03:50;;;;;;;31.83;6.27;;;12.00;81.20;;;;;;4309012;33;20447;-66
2021/03/11 09:06:22;;;;;;;33.87;6.90;;;12.10;80.70;;;;;;4310289;33;20204;-68
2021/03/11 09:08:54;;;;;;;35.00;6.90;;;12.10;79.40;;;;;;4311222;33;20206;-67
2021/03/11 09:11:26;;;;;;;29.27;6.97;;;12.10;80.00;;;;;;4310778;33;20267;-67
2021/03/11 09:13:58;;;;;;;36.60;8.33;;;12.40;78.20;;;;;;4310326;33;20255;-67
2021/03/11 09:16:28;;;;;;;38.57;7.23;;;12.70;77.90;;;;;;4309993;33;20642;-67
2021/03/11 09:18:56;;;;;;;29.93;5.97;;;12.60;76.80;;;;;;4310063;33;20191;-66
2021/03/11 09:21:32;;;;;;;31.77;6.80;;;12.50;77.30;;;;;;4313507;33;20237;-66
2021/03/11 09:24:03;;;;;;;30.60;7.10;;;12.30;78.10;;;;;;4310719;33;20295;-67
2021/03/11 09:26:36;;;;;;;32.40;7.40;;;12.20;78.10;;;;;;4310136;33;20284;-68
2021/03/11 09:29:19;;;;;;;38.67;7.10;;;12.00;78.40;;;;;;4312554;33;20165;-67
2021/03/11 09:31:58;;;;;;;35.97;7.87;;;12.00;78.80;;;;;;4311417;33;20166;-67
2021/03/11 09:34:58;;;;;;;37.90;8.03;;;12.00;78.10;;;;;;4314828;32;20191;-68
2021/03/11 09:37:56;;;;;;;44.77;7.90;;;12.00;78.40;;;;;;4370002;32;20179;-65
2021/03/11 09:40:42;;;;;;;37.20;8.00;;;12.00;78.70;;;;;;4370326;32;20232;-65
2021/03/11 09:43:22;;;;;;;32.67;7.73;;;11.90;79.10;;;;;;4375220;32;20623;-66
2021/03/11 09:45:57;;;;;;;33.17;7.37;;;12.00;79.70;;;;;;4371198;32;21196;-66
2021/03/11 09:48:28;;;;;;;35.10;7.37;;;12.20;78.30;;;;;;4365155;32;20566;-67
2021/03/11 09:50:59;;;;;;;32.60;6.97;;;12.60;76.30;;;;;;4372726;32;20194;-67
2021/03/11 09:53:38;;;;;;;34.40;6.67;;;12.90;76.20;;;;;;4368424;32;20176;-67
2021/03/11 09:56:07;;;;;;;34.33;7.93;;;12.70;75.00;;;;;;4367848;32;20237;-67
2021/03/11 09:58:36;;;;;;;31.47;5.97;;;12.40;76.40;;;;;;4370889;32;20152;-66
2021/03/11 10:01:06;;;;;;;28.27;5.87;;;12.30;75.00;;;;;;4374989;32;20163;-67
2021/03/11 10:03:34;;;;;;;30.37;7.30;;;12.20;75.90;;;;;;4369142;32;20469;-66
2021/03/11 10:06:05;;;;;;;42.87;7.80;;;12.20;75.40;;;;;;4367576;32;20904;-68
2021/03/11 10:08:37;;;;;;;36.23;7.73;;;12.30;75.60;;;;;;4372638;32;20179;-66
2021/03/11 10:11:18;;;;;;;38.07;7.07;;;12.20;75.60;;;;;;4369221;32;20179;-66
2021/03/11 10:14:01;;;;;;;38.03;7.57;;;12.10;76.10;;;;;;4373563;32;20224;-66
2021/03/11 10:16:47;;;;;;;29.87;6.53;;;12.00;77.30;;;;;;4370689;32;20199;-66
2021/03/11 10:19:32;;;;;;;37.87;8.03;;;12.20;76.10;;;;;;4370561;32;20216;-66
2021/03/11 10:22:04;;;;;;;34.20;7.57;;;12.40;74.90;;;;;;4371814;32;20192;-68
2021/03/11 10:24:42;;;;;;;37.30;8.07;;;12.50;74.90;;;;;;4372139;32;20589;-66
2021/03/11 10:27:27;;;;;;;43.67;8.10;;;12.50;74.40;;;;;;4370215;32;20623;-66
2021/03/11 10:30:13;;;;;;;24.47;5.97;;;12.40;75.00;;;;;;4372449;32;20203;-68
2021/03/11 10:32:46;;;;;;;38.90;7.43;;;12.20;75.10;;;;;;4371705;32;20175;-67
2021/03/11 10:35:27;;;;;;;27.93;6.10;;;12.20;76.40;;;;;;4368176;32;20152;-67
2021/03/11 10:38:09;;;;;;;31.67;8.50;;;12.20;76.10;;;;;;4370124;32;20226;-67
2021/03/11 10:40:47;;;;;;;33.13;6.67;;;12.10;77.00;;;;;;4369538;32;20174;-66
2021/03/11 10:43:20;;;;;;;35.77;7.63;;;12.10;77.00;;;;;;4367880;32;20169;-67
2021/03/11 10:45:50;;;;;;;34.40;7.03;;;12.00;76.10;;;;;;4369669;32;20203;-65
2021/03/11 10:48:30;;;;;;;31.17;7.40;;;12.10;76.10;;;;;;4372984;32;20293;-66
2021/03/11 10:51:07;;;;;;;34.40;7.17;;;12.20;76.50;;;;;;4372071;32;20271;-66
2021/03/11 10:53:54;;;;;;;42.17;8.07;;;11.90;76.60;;;;;;4371457;32;20149;-66
2021/03/11 10:56:21;;;;;;;28.97;7.20;;;11.90;76.50;;;;;;4368724;32;20167;-67
2021/03/11 10:59:22;;;;;;;31.70;6.83;;;11.90;77.30;;;;;;4371387;32;20238;-67
2021/03/11 11:02:21;;;;;;;34.87;7.13;;;11.80;76.90;;;;;;4302382;33;20194;-67
2021/03/11 11:05:06;;;;;;;32.70;8.10;;;11.80;77.30;;;;;;4299260;33;20195;-64
2021/03/11 11:11:11;;;;;;;28.37;7.27;;;11.70;78.10;;;;;;4210061;34;20250;-66
2021/03/11 11:16:53;;;;;;;39.27;8.80;;;11.70;78.80;;;;;;4212879;34;20243;-67
2021/03/11 11:19:49;;;;;;;;;;;;;;;;;;;;;
2021/03/11 11:22:15;;;;;;;32.60;7.30;;;11.90;77.60;;;;;;4211848;34;20571;-67
2021/03/11 11:24:46;;;;;;;35.83;7.13;;;11.90;77.90;;;;;;4212577;34;20181;-68
2021/03/11 11:27:20;;;;;;;41.50;8.10;;;11.90;77.30;;;;;;4211078;34;20259;-66
2021/03/11 11:29:49;;;;;;;30.23;7.57;;;12.00;77.20;;;;;;4209548;34;20168;-66
2021/03/11 11:32:20;;;;;;;34.70;7.13;;;12.10;77.20;;;;;;4211366;34;20177;-67
2021/03/11 11:34:48;;;;;;;28.43;6.93;;;12.10;77.60;;;;;;4211884;34;20302;-66
2021/03/11 11:37:20;;;;;;;33.73;7.13;;;12.20;77.40;;;;;;4211432;34;20243;-67
2021/03/11 11:39:48;;;;;;;35.63;7.20;;;12.00;77.80;;;;;;4269989;33;20162;-67
2021/03/11 11:42:29;;;;;;;33.93;7.67;;;11.90;78.60;;;;;;4333132;33;20178;-66
2021/03/11 11:45:12;;;;;;;41.50;8.20;;;11.90;79.30;;;;;;4339458;32;20247;-68
2021/03/11 11:47:48;;;;;;;31.57;6.77;;;12.00;77.90;;;;;;4341941;33;20182;-68
2021/03/11 11:50:15;;;;;;;33.27;7.20;;;12.20;77.90;;;;;;4334981;33;20160;-67
2021/03/11 11:52:59;;;;;;;36.77;7.97;;;12.50;78.00;;;;;;4344041;32;20194;-68
2021/03/11 11:55:32;;;;;;;36.20;7.93;;;12.60;76.50;;;;;;4365621;32;20277;-67
2021/03/11 11:58:06;;;;;;;33.30;8.33;;;12.40;76.80;;;;;;4367561;32;20168;-66
2021/03/11 12:01:01;;;;;;;40.03;7.40;;;12.30;77.60;;;;;;4367786;32;20242;-67
2021/03/11 12:03:30;;;;;;;29.73;7.17;;;12.10;78.00;;;;;;4367152;32;20539;-68
2021/03/11 12:05:57;;;;;;;41.97;8.63;;;12.00;78.50;;;;;;4365734;32;20185;-66
2021/03/11 12:08:31;;;;;;;37.00;8.33;;;12.00;78.90;;;;;;4370158;32;20172;-67
2021/03/11 12:11:07;;;;;;;27.13;7.00;;;12.20;78.60;;;;;;4367391;32;20184;-69
2021/03/11 12:13:54;;;;;;;37.87;7.37;;;12.20;77.40;;;;;;4368231;32;20148;-66
2021/03/11 12:16:34;;;;;;;37.20;8.30;;;12.10;78.00;;;;;;4367578;32;20456;-67
2021/03/11 12:19:06;;;;;;;31.90;6.70;;;12.20;78.10;;;;;;4367511;32;20160;-68
2021/03/11 12:21:57;;;;;;;30.37;7.27;;;12.40;77.10;;;;;;4368916;32;20157;-65
2021/03/11 12:24:37;;;;;;;30.60;7.90;;;12.40;76.10;;;;;;4370354;32;20239;-65
2021/03/11 12:27:09;;;;;;;26.00;6.27;;;12.60;76.40;;;;;;4369171;32;20194;-66
2021/03/11 12:29:49;;;;;;;39.63;7.17;;;12.60;75.50;;;;;;4369988;32;20164;-67
2021/03/11 12:32:35;;;;;;;30.20;6.23;;;12.80;75.00;;;;;;4367445;32;20159;-66
2021/03/11 12:35:05;;;;;;;28.83;7.20;;;13.10;74.20;;;;;;4369847;32;20198;-66
2021/03/11 12:37:35;;;;;;;33.67;7.60;;;13.20;75.10;;;;;;4365540;32;20242;-66
2021/03/11 12:40:02;;;;;;;29.27;6.63;;;13.30;73.80;;;;;;4370108;32;20584;-67
2021/03/11 12:48:23;;;;;;;38.20;7.20;;;12.80;74.90;;;;;;4298474;33;20230;-67
2021/03/11 12:50:54;;;;;;;30.90;6.60;;;12.80;74.70;;;;;;4299375;33;20182;-66
2021/03/11 12:53:39;;;;;;;36.57;7.50;;;12.90;74.40;;;;;;4301122;33;20165;-69
2021/03/11 12:56:11;;;;;;;32.77;6.77;;;13.10;73.00;;;;;;4298421;33;20661;-66
2021/03/11 12:59:03;;;;;;;30.47;6.87;;;13.20;73.10;;;;;;4302054;33;20221;-68
2021/03/11 13:01:42;;;;;;;32.20;6.40;;;13.10;73.10;;;;;;4305782;33;20695;-66
2021/03/11 13:04:18;;;;;;;28.73;5.87;;;13.20;73.30;;;;;;4299555;33;20180;-67
2021/03/11 13:06:45;;;;;;;30.43;6.33;;;13.30;73.50;;;;;;4297249;33;20776;-67
2021/03/11 13:09:23;;;;;;;30.23;6.23;;;13.50;72.60;;;;;;4296968;33;20237;-68
2021/03/11 13:12:02;;;;;;;24.63;6.03;;;13.50;72.40;;;;;;4298058;33;20415;-68
2021/03/11 13:14:29;;;;;;;29.13;7.07;;;13.40;73.40;;;;;;4301485;33;20213;-67
2021/03/11 13:17:01;;;;;;;31.17;6.73;;;12.90;74.40;;;;;;4304043;33;20166;-67
2021/03/11 13:19:27;;;;;;;35.43;6.80;;;12.60;75.40;;;;;;4301389;33;20217;-67
2021/03/11 13:22:03;;;;;;;27.23;6.93;;;12.50;76.10;;;;;;4320490;32;20628;-69
2021/03/11 13:24:31;;;;;;;28.67;7.30;;;12.10;77.20;;;;;;4370624;32;20225;-67